Meteo Giornale » Osservazioni meteo Italia » Capo Mele

ore: 07:55 - Osservazioni Meteo Capo Mele
Lat. 43° 57' N Lon. 8° 10' E Alt. 220 metri s.l.m.

sereno Europe/Rome

15 °C

Sereno

Temp. 24 Ore

15 °C

23 °C

Nord/Nord-Est

18.5 Km/h

Dew point 7 °C

Umidità 58 %

Visibilità  10 Km

Il sole sorge alle ore 06:33

Il sole tramonta alle ore 20:18

Data e Ora Cielo e Fenomeni T °C DP °C Um. % Pres. hPa Vis. km Vento km/h
Oggi h: 07:55 sereno Sereno 15 7 58 1026 10 N/NE 18.5
Oggi h: 06:55 sereno Sereno 15 6 54 1026 10 N/NE 14.8
Oggi h: 04:55 sereno Sereno 15 5 51 1026 10 N/NE 9.3
Oggi h: 03:55 sereno Sereno 15 4 47 1026 10 NE 9.3
Oggi h: 02:55 sereno Sereno 16 6 51 1026 10 N 9.3
Oggi h: 00:55 sereno Sereno 15 7 58 1027 10 N 5.5
Ieri h: 23:55 sereno Sereno 15 6 54 1027 10 N/NE 9.3
Ieri h: 21:55 sereno Sereno 15 6 54 1027 10 N 5.5
Ieri h: 20:55 sereno Sereno 16 6 51 1027 10 N 0
Ieri h: 19:55 sereno Sereno 18 7 48 1027 10 N 0
Ieri h: 18:55 sereno Sereno 18 7 48 1027 10 N 3.7
Ieri h: 17:55 sereno Sereno 19 8 48 1027 10 N 3.7
Ieri h: 16:55 sereno Sereno 18 11 63 1027 10 N 3.7
Ieri h: 15:55 sereno Sereno 23 11 46 1027 10 S/SE 7.4
Ieri h: 14:55 sereno Sereno 23 9 40 1027 10 N 0
Ieri h: 13:55 sereno Sereno 23 6 33 1028 10 N 0
Ieri h: 12:55 sereno Sereno 22 7 37 1028 10 N 0
Ieri h: 11:55 sereno Sereno 21 6 37 1028 10 N 3.7
Ieri h: 10:55 sereno Sereno 20 7 42 1028 10 E/NE 9.3
Ieri h: 09:55 sereno Sereno 20 7 42 1028 10 NE 7.4